EW2980 Weather Reports


time (UTC)temp
C
wind
direction
speed
KPH
gust
KPH
rain 1hr
cm
rain 24hr
cm
rain mn
cm
humidity
%
barometer
mb
20200229080043 16 204 0.0 1.6 0.00 0.00 0.00 72 1016.9
20200229074617 16 204 3.2 6.4 0.00 0.00 0.00 77 1017.2
20200229073055 15 221 3.2 4.8 0.00 0.00 0.00 80 1017.5
20200229071537 15 294 0.0 0.0 0.00 0.00 0.00 77 1017.9
20200229070005 16 142 0.0 3.2 0.00 0.00 0.00 76 1017.9
20200229064507 16 173 4.8 6.4 0.00 0.00 0.00 79 1017.7
20200229063038 15 119 0.0 0.0 0.00 0.00 0.00 77 1017.7
20200229061503 16 119 0.0 0.0 0.00 0.00 0.00 76 1017.9
20200229060004 17 119 0.0 1.6 0.00 0.00 0.00 75 1017.9
20200229054502 17 119 0.0 3.2 0.00 0.00 0.00 74 1017.7
20200229053255 18 119 0.0 4.8 0.00 0.00 0.00 74 1017.8
20200229053001 18 119 1.6 4.8 0.00 0.00 0.00 74 1017.8
20200229051703 18 110 0.0 4.8 0.00 0.00 0.00 74 1018.1
20200229050148 18 109 3.2 11.3 0.00 0.00 0.00 73 1018.2
20200229044742 18 115 11.3 16.1 0.00 0.00 0.00 72 1018.1
20200229043219 18 119 4.8 8.0 0.00 0.00 0.00 73 1018.2
20200229041612 18 5 0.0 0.0 0.00 0.00 0.00 74 1018.4
20200229040134 18 5 0.0 0.0 0.00 0.00 0.00 73 1018.4
20200229034618 18 5 0.0 4.8 0.00 0.00 0.00 72 1018.3
20200229033136 18 5 1.6 4.8 0.00 0.00 0.00 72 1018.1
20200229031710 18 5 0.0 0.0 0.00 0.00 0.00 73 1017.9
20200229030209 19 5 0.0 0.0 0.00 0.00 0.00 72 1017.7
20200229024626 19 5 0.0 0.0 0.00 0.00 0.00 72 1017.4
20200229023337 20 5 0.0 0.0 0.00 0.00 0.00 72 1017.1
20200229021636 20 5 0.0 0.0 0.00 0.00 0.00 72 1017.1
20200229020131 20 5 0.0 0.0 0.00 0.00 0.00 72 1017.0
20200229014633 20 5 0.0 4.8 0.00 0.00 0.00 71 1017.1
20200229013102 21 346 1.6 8.0 0.00 0.00 0.00 70 1017.1
20200229011618 21 355 1.6 8.0 0.00 0.00 0.00 69 1016.9
20200229010113 21 306 4.8 8.0 0.00 0.00 0.00 67 1017.0
20200229004645 21 333 3.2 9.7 0.00 0.00 0.00 67 1016.9
20200229003206 22 344 6.4 12.9 0.00 0.00 0.00 67 1016.9
20200229001622 22 319 4.8 16.1 0.00 0.00 0.00 68 1016.6
20200229000128 22 311 8.0 16.1 0.00 0.00 0.00 67 1016.5
20200228234605 23 299 3.2 12.9 0.00 0.00 0.00 65 1016.3
20200228233152 23 278 4.8 12.9 0.00 0.00 0.00 61 1016.2
20200228231611 23 319 6.4 9.7 0.00 0.00 0.00 57 1016.2
20200228230206 23 294 6.4 12.9 0.00 0.00 0.00 57 1016.2
20200228224719 23 233 4.8 12.9 0.00 0.00 0.00 57 1016.1
20200228223145 23 251 3.2 14.5 0.00 0.00 0.00 56 1016.1
20200228221636 23 285 3.2 12.9 0.00 0.00 0.00 54 1016.1
20200228220044 23 273 3.2 12.9 0.00 0.00 0.00 56 1016.0
20200228214607 23 257 4.8 12.9 0.00 0.00 0.00 57 1016.0
20200228213109 23 193 9.7 14.5 0.00 0.00 0.00 61 1016.0
20200228213034 23 200 9.7 14.5 0.00 0.00 0.00 61 1016.0
20200228211559 23 34 11.3 17.7 0.00 0.00 0.00 62 1015.9
20200228210055 23 318 4.8 16.1 0.00 0.00 0.00 64 1015.8
20200228204651 23 161 6.4 16.1 0.00 0.00 0.00 65 1015.7
20200228203109 22 277 9.7 16.1 0.00 0.00 0.00 67 1016.0
20200228201553 22 265 6.4 16.1 0.00 0.00 0.00 68 1016.3
20200228200107 22 265 6.4 14.5 0.00 0.00 0.00 67 1016.5
20200228194555 22 300 4.8 14.5 0.00 0.00 0.00 67 1016.8
20200228193054 23 240 3.2 11.3 0.00 0.00 0.00 64 1017.1
20200228191601 22 256 3.2 9.7 0.00 0.00 0.00 68 1017.4
20200228190041 21 252 8.0 14.5 0.00 0.00 0.00 71 1017.8
20200228184521 21 286 4.8 14.5 0.00 0.00 0.00 70 1018.1
20200228183027 21 274 6.4 14.5 0.00 0.00 0.00 71 1018.5
20200228181519 21 254 6.4 12.9 0.00 0.00 0.00 71 1018.6
20200228180016 21 309 8.0 14.5 0.00 0.00 0.00 71 1018.7
20200228174518 21 300 6.4 14.5 0.00 0.00 0.00 71 1018.7
20200228173033 21 291 6.4 14.5 0.00 0.00 0.00 71 1018.7
20200228170004 21 254 4.8 11.3 0.00 0.00 0.00 72 1018.2
20200228164615 20 279 4.8 11.3 0.00 0.00 0.00 73 1018.3
20200228163152 21 275 4.8 9.7 0.00 0.00 0.00 71 1018.3
20200228161719 21 5 0.0 4.8 0.00 0.00 0.00 66 1018.3
20200228160219 21 78 0.0 3.2 0.00 0.00 0.00 68 1018.0
20200228154700 20 83 3.2 6.4 0.00 0.00 0.00 71 1018.0
20200228153146 19 51 3.2 8.0 0.00 0.00 0.00 73 1017.9
20200228151535 18 80 1.6 6.4 0.00 0.00 0.00 78 1017.7
20200228150109 16 355 0.0 3.2 0.00 0.00 0.00 84 1017.7
20200228144530 15 280 0.0 0.0 0.00 0.00 0.00 87 1017.4
20200228143041 13 280 0.0 1.6 0.00 0.00 0.00 88 1017.3
20200228141544 13 275 0.0 0.0 0.00 0.00 0.00 88 1017.0
20200228140026 13 275 0.0 0.0 0.00 0.00 0.00 88 1016.8
20200228134538 13 275 0.0 1.6 0.00 0.00 0.00 88 1016.6
20200228133101 15 200 0.0 0.0 0.00 0.00 0.00 89 1016.6
20200228131551 13 200 0.0 0.0 0.00 0.00 0.00 87 1016.8
20200228130018 15 200 0.0 0.0 0.00 0.00 0.00 88 1016.7
20200228124508 14 200 0.0 0.0 0.00 0.00 0.00 87 1016.6
20200228123008 15 200 0.0 3.2 0.00 0.00 0.00 89 1016.4
20200228121507 13 200 0.0 0.0 0.00 0.00 0.00 86 1016.4
20200228114829 15 200 0.0 3.2 0.00 0.00 0.00 89 1016.0
20200228113129 14 200 0.0 0.0 0.00 0.00 0.00 86 1016.1
20200228111712 14 200 0.0 0.0 0.00 0.00 0.00 86 1016.0
20200228110059 14 200 0.0 0.0 0.00 0.00 0.00 86 1015.7
20200228104713 15 200 0.0 3.2 0.00 0.00 0.00 87 1015.7
20200228101607 16 200 0.0 0.0 0.00 0.00 0.00 88 1015.7
20200228100110 13 200 0.0 0.0 0.00 0.00 0.00 86 1015.9
20200228094641 14 200 0.0 0.0 0.00 0.00 0.00 85 1016.2
20200228093200 15 200 0.0 0.0 0.00 0.00 0.00 84 1016.2
20200228090046 16 196 1.6 6.4 0.00 0.00 0.00 85 1016.5
20200228084604 17 143 1.6 6.4 0.00 0.00 0.00 85 1016.6
20200228083042 16 155 4.8 8.0 0.00 0.00 0.00 87 1016.9
20200228081610 16 108 0.0 3.2 0.00 0.00 0.00 83 1017.2